North Auburn, Nebraska
Current Conditions -  °F | °C
As of 1:15 AM on Friday 19 Dec 2014 (Local Time) from KAFK Reporting Station
Haze Haze  
Wind Chill: 29°   Ceiling: 500
Heat Index: 29°   Visibility: 5mi
Dew Point: 29°   Wind: 3mph
Humidity: 100%   Direction: 190°S
Pressure: 30.24"   Gusts: NA
Location:  40.3314°N, 95.8994°W
Report Text: KAFK 190715Z AUTO 19003KT 5SM BR OVC005 M01/M01 A3024 RMK AO2 T10151015
Loading
Personal Weather Stations






























Interactive Weather Map New forecast layout! Learn more

10-Day Weather Forecast

Advertisements
Track Severe Weather on mobile